Juniata, Nebraska
Current Conditions -  °F | °C
As of 6:53 AM on Monday 22 Dec 2014 (Local Time) from KHSI Reporting Station
Overcast Overcast  
Wind Chill: 31°   Ceiling: 2700
Heat Index: 38°   Visibility: 10mi
Dew Point: 34°   Wind: 9mph
Humidity: 86%   Direction: 300°WNW
Pressure: 29.52"   Gusts: NA
Location:  40.59°N, 98.51°W
Report Text: KHSI 221253Z AUTO 30008KT 10SM OVC027 03/01 A2952 RMK AO2 SLP006 T00330011
Loading
Personal Weather Stations






























Interactive Weather Map New forecast layout! Learn more

10-Day Weather Forecast

Advertisements
Track Severe Weather on mobile